Time;durP1;ratioP1;P1;durP2;ratioP2;P2;SDS_P1;SDS_P2;PMS_P1;PMS_P2;Temp;Humidity;BMP_temperature;BMP_pressure;BME280_temperature;BME280_humidity;BME280_pressure;Samples;Min_cycle;Max_cycle;Signal;HPM_P1;HPM_P2
2023/12/30 00:02:13;;;;;;;0.00;0.00;;;;;;;4.41;100.00;99929.75;5060793;28;20577;-75
2023/12/30 00:04:39;;;;;;;0.00;0.00;;;;;;;4.33;100.00;99918.22;5059973;28;20055;-77
2023/12/30 00:07:04;;;;;;;0.10;0.10;;;;;;;4.30;100.00;99913.28;5036304;28;20474;-79
2023/12/30 00:09:30;;;;;;;0.00;0.00;;;;;;;4.21;100.00;99903.91;5056883;28;20543;-75
2023/12/30 00:12:04;;;;;;;0.00;0.00;;;;;;;4.41;100.00;99932.47;5086423;28;20036;-74
2023/12/30 00:14:41;;;;;;;0.00;0.00;;;;;;;4.18;100.00;99901.66;5095718;28;20675;-76
2023/12/30 00:17:15;;;;;;;0.00;0.00;;;;;;;4.29;100.00;99918.94;5093701;28;20127;-74
2023/12/30 00:19:46;;;;;;;0.00;0.00;;;;;;;4.30;100.00;99918.72;5073766;28;20069;-77
2023/12/30 00:25:59;;;;;;;;;;;;;;;;;;;;;
2023/12/30 00:28:27;;;;;;;0.00;0.00;;;;;;;4.67;100.00;99939.25;5094721;28;20034;-75
2023/12/30 00:31:39;;;;;;;0.00;0.00;;;;;;;4.38;100.00;99885.06;5094445;28;20056;-75
2023/12/30 00:34:34;;;;;;;0.10;0.10;;;;;;;4.49;100.00;99899.63;5088886;28;20111;-75
2023/12/30 00:37:20;;;;;;;;;;;;;;;;;;;;;
2023/12/30 00:43:12;;;;;;;0.00;0.00;;;;;;;4.12;100.00;99840.38;5072748;28;20040;-75
2023/12/30 00:46:00;;;;;;;;;;;;;;;;;;;;;
2023/12/30 00:49:08;;;;;;;0.00;0.00;;;;;;;4.37;100.00;99907.78;5081679;28;20058;-75
2023/12/30 00:51:59;;;;;;;0.10;0.10;;;;;;;4.11;100.00;99879.31;5095410;28;20043;-75
2023/12/30 00:54:24;;;;;;;0.10;0.10;;;;;;;3.98;100.00;99862.25;5095391;28;20021;-76
2023/12/30 00:56:57;;;;;;;0.00;0.00;;;;;;;4.04;100.00;99865.09;5090245;28;20047;-74
2023/12/30 00:59:23;;;;;;;0.10;0.10;;;;;;;3.94;100.00;99861.09;5090172;28;20027;-74
2023/12/30 01:01:51;;;;;;;0.00;0.00;;;;;;;3.99;100.00;99868.50;5073998;28;20040;-75
2023/12/30 01:04:16;;;;;;;0.00;0.00;;;;;;;4.17;100.00;99891.91;5074322;28;20034;-73
2023/12/30 01:06:42;;;;;;;0.00;0.00;;;;;;;4.01;100.00;99864.47;5086984;28;20115;-73
2023/12/30 01:09:10;;;;;;;0.00;0.00;;;;;;;3.97;100.00;99865.19;5095038;28;20481;-74
2023/12/30 01:11:45;;;;;;;0.00;0.00;;;;;;;3.97;100.00;99876.84;5084219;28;20615;-74
2023/12/30 01:14:11;;;;;;;0.10;0.10;;;;;;;3.99;100.00;99873.91;5065334;28;20457;-77
2023/12/30 01:16:36;;;;;;;0.10;0.10;;;;;;;3.92;100.00;99868.63;5098593;28;20024;-75
2023/12/30 01:19:02;;;;;;;0.10;0.10;;;;;;;4.10;100.00;99896.59;5088163;28;20028;-74
2023/12/30 01:21:28;;;;;;;0.00;0.00;;;;;;;3.99;100.00;99882.03;5093540;28;20108;-74
2023/12/30 01:23:53;;;;;;;0.00;0.00;;;;;;;4.06;100.00;99907.09;5079229;28;20027;-72
2023/12/30 01:26:21;;;;;;;0.00;0.00;;;;;;;3.87;100.00;99890.16;5072649;28;20035;-75
2023/12/30 01:28:47;;;;;;;0.00;0.00;;;;;;;3.90;100.00;99889.69;5081772;28;20366;-74
2023/12/30 01:31:18;;;;;;;0.00;0.00;;;;;;;4.04;100.00;99902.97;5079239;28;20028;-73
2023/12/30 01:33:51;;;;;;;0.00;0.00;;;;;;;4.00;100.00;99908.84;5089732;28;20054;-74
2023/12/30 01:36:54;;;;;;;0.00;0.00;;;;;;;4.11;100.00;99918.00;5079809;28;20020;-76
2023/12/30 01:39:22;;;;;;;0.00;0.00;;;;;;;4.01;100.00;99894.25;5113643;27;20039;-77
2023/12/30 01:42:49;;;;;;;0.00;0.00;;;;;;;4.07;100.00;99902.50;5097712;28;20057;-75
2023/12/30 01:45:00;;;;;;;0.00;0.00;;;;;;;4.16;100.00;99918.16;5091428;28;20042;-79
2023/12/30 01:47:29;;;;;;;0.00;0.00;;;;;;;4.08;100.00;99923.91;5125160;27;20729;-80
2023/12/30 01:49:54;;;;;;;0.00;0.00;;;;;;;3.90;100.00;99897.78;5089398;28;20023;-77
2023/12/30 01:52:33;;;;;;;0.00;0.00;;;;;;;3.87;100.00;99879.34;5107886;28;20028;-80
2023/12/30 01:54:59;;;;;;;0.00;0.00;;;;;;;4.10;100.00;99893.91;5105472;28;20444;-75
2023/12/30 02:00:21;;;;;;;0.00;0.00;;;;;;;4.51;100.00;99905.59;5088784;28;20035;-76
2023/12/30 02:02:50;;;;;;;0.00;0.00;;;;;;;4.51;100.00;99879.38;5108924;28;20072;-76
2023/12/30 02:05:18;;;;;;;0.00;0.00;;;;;;;4.77;100.00;99895.31;5103594;28;20160;-75
2023/12/30 02:07:45;;;;;;;0.00;0.00;;;;;;;4.88;100.00;99891.75;5093188;28;20178;-75
2023/12/30 02:10:13;;;;;;;0.00;0.00;;;;;;;4.94;100.00;99896.19;5085347;28;20545;-75
2023/12/30 02:12:41;;;;;;;0.10;0.10;;;;;;;5.00;100.00;99899.81;5097393;28;20020;-77
2023/12/30 02:15:21;;;;;;;0.00;0.00;;;;;;;4.99;100.00;99888.16;5075795;28;20149;-75
2023/12/30 02:17:55;;;;;;;0.00;0.00;;;;;;;5.03;100.00;99878.47;5092111;28;20063;-75
2023/12/30 02:20:33;;;;;;;0.10;0.10;;;;;;;5.13;100.00;99874.31;5099007;28;20058;-75
2023/12/30 02:23:06;;;;;;;0.00;0.00;;;;;;;5.20;100.00;99883.13;5094554;28;20268;-75
2023/12/30 02:25:36;;;;;;;0.00;0.00;;;;;;;5.17;100.00;99867.31;5098095;28;20052;-78
2023/12/30 02:28:14;;;;;;;;;;;;;;;;;;;;;
2023/12/30 02:33:47;;;;;;;0.10;0.10;;;;;;;5.45;100.00;99890.03;5080426;28;20094;-76
2023/12/30 02:36:18;;;;;;;0.00;0.00;;;;;;;5.44;100.00;99888.41;5095603;28;20033;-76
2023/12/30 02:38:56;;;;;;;;;;;;;;;;;;;;;
2023/12/30 02:41:22;;;;;;;0.00;0.00;;;;;;;5.37;100.00;99872.28;5086544;28;20020;-76
2023/12/30 02:44:18;;;;;;;;;;;;;;;;;;;;;
2023/12/30 02:53:13;;;;;;;0.00;0.00;;;;;;;5.77;100.00;99915.53;5045831;28;20041;-77
2023/12/30 02:55:43;;;;;;;0.00;0.00;;;;;;;5.56;100.00;99860.16;5022060;28;20044;-75
2023/12/30 02:58:21;;;;;;;;;;;;;;;;;;;;;
2023/12/30 03:00:47;;;;;;;0.08;0.08;;;;;;;5.91;100.00;99904.34;5089014;28;20031;-76
2023/12/30 03:03:22;;;;;;;0.00;0.00;;;;;;;5.69;100.00;99861.69;5094510;28;20020;-77
2023/12/30 03:05:50;;;;;;;0.00;0.00;;;;;;;5.76;100.00;99856.91;5095135;28;20103;-76
2023/12/30 03:08:33;;;;;;;0.00;0.00;;;;;;;5.80;100.00;99849.13;5098217;28;20419;-77
2023/12/30 03:11:07;;;;;;;0.00;0.00;;;;;;;5.96;100.00;99866.44;5099898;28;20106;-76
2023/12/30 03:13:33;;;;;;;;;;;;;;;6.10;100.00;99875.91;5093474;28;20028;-76
2023/12/30 03:15:58;;;;;;;0.00;0.00;;;;;;;6.02;100.00;99851.91;5090822;28;19908;-76
2023/12/30 03:18:34;;;;;;;0.00;0.00;;;;;;;6.12;100.00;99864.81;5102715;28;20024;-77
2023/12/30 03:21:09;;;;;;;;;;;;;;;;;;;;;
2023/12/30 03:23:55;;;;;;;0.00;0.00;;;;;;;5.91;100.00;99817.50;5101323;28;20016;-76
2023/12/30 03:26:58;;;;;;;0.00;0.00;;;;;;;6.19;100.00;99851.03;5078184;28;20027;-76
2023/12/30 03:30:02;;;;;;;;;;;;;;;;;;;;;
2023/12/30 03:32:48;;;;;;;0.00;0.00;;;;;;;6.13;100.00;99827.63;5099600;28;20037;-76
2023/12/30 03:35:47;;;;;;;;;;;;;;;;;;;;;
2023/12/30 03:41:37;;;;;;;0.00;0.00;;;;;;;6.52;100.00;99843.88;5070675;28;20058;-75
2023/12/30 03:46:57;;;;;;;0.10;0.10;;;;;;;6.38;100.00;99813.53;5100867;28;20043;-75
2023/12/30 03:52:38;;;;;;;0.00;0.00;;;;;;;6.52;100.00;99838.44;5057976;28;20385;-76
2023/12/30 03:55:06;;;;;;;0.00;0.00;;;;;;;6.37;100.00;99814.63;5088493;28;20284;-76
2023/12/30 03:57:31;;;;;;;0.00;0.00;;;;;;;6.28;100.00;99806.09;5086298;28;20113;-76
2023/12/30 04:00:00;;;;;;;0.00;0.00;;;;;;;6.15;100.00;99779.31;5101779;28;20042;-75
2023/12/30 04:02:26;;;;;;;0.00;0.00;;;;;;;6.28;100.00;99803.38;5088205;28;20030;-76
2023/12/30 04:07:56;;;;;;;0.00;0.00;;;;;;;6.27;100.00;99799.03;5078846;28;20043;-77
2023/12/30 04:10:39;;;;;;;0.00;0.00;;;;;;;6.26;100.00;99789.22;5097554;28;20026;-78
2023/12/30 04:13:09;;;;;;;0.00;0.00;;;;;;;6.35;100.00;99804.03;5116597;27;20420;-77
2023/12/30 04:15:44;;;;;;;;;;;;;;;;;;;;;
2023/12/30 04:18:10;;;;;;;0.10;0.10;;;;;;;6.56;100.00;99823.28;5095279;28;20015;-78
2023/12/30 04:21:07;;;;;;;0.00;0.00;;;;;;;6.29;100.00;99769.72;5096919;28;20478;-77
2023/12/30 04:23:43;;;;;;;0.00;0.00;;;;;;;6.38;100.00;99779.06;5098610;28;20051;-76
2023/12/30 04:26:16;;;;;;;0.00;0.00;;;;;;;6.14;100.00;99734.25;5095907;28;20492;-77
2023/12/30 04:28:41;;;;;;;0.00;0.00;;;;;;;6.03;100.00;99723.28;5106067;28;20532;-75
2023/12/30 04:31:24;;;;;;;0.00;0.00;;;;;;;5.94;100.00;99719.31;5097690;28;20110;-76
2023/12/30 04:34:02;;;;;;;0.00;0.00;;;;;;;6.22;100.00;99763.66;5099200;28;20102;-77
2023/12/30 04:36:30;;;;;;;0.00;0.00;;;;;;;6.10;100.00;99736.63;5095195;28;20501;-77
2023/12/30 04:39:23;;;;;;;;;;;;;;;;;;;;;
2023/12/30 04:41:59;;;;;;;;;;;;;;;;;;;;;
2023/12/30 04:44:27;;;;;;;0.00;0.00;;;;;;;6.24;100.00;99731.66;5096257;28;20028;-77
2023/12/30 04:46:55;;;;;;;0.00;0.00;;;;;;;6.30;100.00;99725.19;5097094;28;20023;-74
2023/12/30 04:49:23;;;;;;;0.00;0.00;;;;;;;6.19;100.00;99704.44;5104031;28;20016;-74
2023/12/30 04:51:56;;;;;;;0.00;0.00;;;;;;;6.29;100.00;99702.66;5083154;28;20066;-76
2023/12/30 04:54:37;;;;;;;;;;;;;;;;;;;;;
2023/12/30 04:57:05;;;;;;;0.00;0.00;;;;;;;6.31;100.00;99701.56;5094367;28;20044;-77
2023/12/30 04:59:30;;;;;;;0.08;0.08;;;;;;;6.40;100.00;99725.31;5101456;28;20032;-76
2023/12/30 05:02:03;;;;;;;0.00;0.00;;;;;;;6.25;100.00;99703.41;5094670;28;20535;-76
2023/12/30 05:04:31;;;;;;;0.00;0.00;;;;;;;6.25;100.00;99697.97;5102626;28;20031;-74
2023/12/30 05:06:57;;;;;;;0.10;0.10;;;;;;;6.30;100.00;99695.31;5084407;28;20027;-75
2023/12/30 05:09:24;;;;;;;0.00;0.00;;;;;;;6.21;100.00;99665.09;5084006;28;20077;-75
2023/12/30 05:11:50;;;;;;;0.00;0.00;;;;;;;6.33;100.00;99680.44;5062727;28;20048;-75
2023/12/30 05:14:18;;;;;;;0.00;0.00;;;;;;;6.35;100.00;99681.81;5081545;28;20158;-76
2023/12/30 05:16:47;;;;;;;0.00;0.00;;;;;;;6.45;100.00;99691.94;5100379;28;20029;-76
2023/12/30 05:19:13;;;;;;;0.00;0.00;;;;;;;6.37;100.00;99684.28;5095832;28;20053;-76
2023/12/30 05:21:41;;;;;;;0.00;0.00;;;;;;;6.38;100.00;99686.72;5103909;28;20016;-76
2023/12/30 05:24:10;;;;;;;0.00;0.00;;;;;;;6.35;100.00;99676.38;5101096;28;20466;-74
2023/12/30 05:26:38;;;;;;;0.00;0.00;;;;;;;6.30;100.00;99698.03;5090369;28;20018;-75
2023/12/30 05:29:21;;;;;;;0.00;0.00;;;;;;;6.19;100.00;99699.00;5090099;28;20024;-75
2023/12/30 05:31:56;;;;;;;0.00;0.00;;;;;;;6.06;100.00;99678.50;5103047;28;20024;-76
2023/12/30 05:34:34;;;;;;;0.00;0.00;;;;;;;5.94;100.00;99656.88;5083211;28;20089;-76
2023/12/30 05:37:09;;;;;;;;;;;;;;;;;;;;;
2023/12/30 05:39:35;;;;;;;0.00;0.00;;;;;;;6.24;100.00;99666.50;5100358;28;20011;-75
2023/12/30 05:42:00;;;;;;;0.00;0.00;;;;;;;6.33;100.00;99656.78;5108055;28;20057;-75
2023/12/30 05:44:26;;;;;;;0.00;0.00;;;;;;;6.59;100.00;99673.34;5086567;28;20026;-75
2023/12/30 05:46:51;;;;;;;0.00;0.00;;;;;;;6.68;100.00;99669.06;5095992;28;20023;-74
2023/12/30 05:49:17;;;;;;;0.00;0.00;;;;;;;6.92;100.00;99696.72;5074058;28;20023;-75
2023/12/30 05:51:47;;;;;;;0.00;0.00;;;;;;;6.91;100.00;99683.41;5088819;28;20043;-77
2023/12/30 05:54:12;;;;;;;0.00;0.00;;;;;;;6.93;100.00;99675.78;5108679;28;20032;-75
2023/12/30 05:56:38;;;;;;;0.00;0.00;;;;;;;6.95;100.00;99657.31;5091896;28;20055;-75
2023/12/30 05:59:06;;;;;;;0.00;0.00;;;;;;;7.20;100.00;99683.03;5090088;28;20747;-75
2023/12/30 06:01:43;;;;;;;0.00;0.00;;;;;;;7.23;100.00;99663.47;5108486;28;20101;-76
2023/12/30 06:04:12;;;;;;;0.00;0.00;;;;;;;7.16;100.00;99641.97;5105457;28;20127;-76
2023/12/30 06:06:37;;;;;;;0.00;0.00;;;;;;;7.28;100.00;99650.72;5109177;28;20023;-76
2023/12/30 06:09:03;;;;;;;0.00;0.00;;;;;;;7.29;100.00;99635.25;5096123;28;20019;-77
2023/12/30 06:11:29;;;;;;;0.00;0.00;;;;;;;7.37;100.00;99628.50;5090950;28;20031;-75
2023/12/30 06:13:55;;;;;;;0.00;0.00;;;;;;;7.34;100.00;99621.66;5095772;28;20122;-75
2023/12/30 06:16:20;;;;;;;0.00;0.00;;;;;;;7.53;100.00;99640.25;5098557;28;20044;-76
2023/12/30 06:18:46;;;;;;;0.00;0.00;;;;;;;7.45;100.00;99617.91;5098396;28;20089;-75
2023/12/30 06:21:20;;;;;;;0.00;0.00;;;;;;;7.57;100.00;99633.22;5086165;28;20110;-77
2023/12/30 06:23:50;;;;;;;0.00;0.00;;;;;;;7.47;100.00;99598.59;5079568;28;20063;-75
2023/12/30 06:26:36;;;;;;;0.00;0.00;;;;;;;7.38;100.00;99587.41;5085718;28;20028;-78
2023/12/30 06:29:05;;;;;;;0.00;0.00;;;;;;;7.59;100.00;99592.94;5089896;28;20036;-77
2023/12/30 06:31:48;;;;;;;0.00;0.00;;;;;;;7.59;100.00;99584.78;5104828;28;20016;-76
2023/12/30 06:34:34;;;;;;;0.00;0.00;;;;;;;7.64;100.00;99571.19;5098031;28;20032;-75
2023/12/30 06:37:10;;;;;;;;;;;;;;;;;;;;;
2023/12/30 06:39:45;;;;;;;0.00;0.00;;;;;;;7.78;100.00;99580.50;5089475;28;20392;-75
2023/12/30 06:42:20;;;;;;;0.10;0.10;;;;;;;7.73;100.00;99569.59;5106489;28;20473;-78
2023/12/30 06:45:03;;;;;;;0.00;0.00;;;;;;;8.02;100.00;99615.41;5084611;28;20028;-76
2023/12/30 06:48:35;;;;;;;0.00;0.00;;;;;;;7.80;100.00;99553.81;5088218;28;20478;-76
2023/12/30 06:57:28;;;;;;;0.00;0.00;;;;;;;8.13;100.00;99578.09;5054221;28;20083;-77
2023/12/30 06:59:59;;;;;;;0.10;0.10;;;;;;;7.90;100.00;99535.88;5047359;28;20052;-73
2023/12/30 07:02:34;;;;;;;0.00;0.00;;;;;;;7.99;100.00;99542.44;5062645;28;20021;-75
2023/12/30 07:05:19;;;;;;;0.00;0.00;;;;;;;8.01;100.00;99532.88;5045740;28;20555;-76
2023/12/30 07:08:00;;;;;;;;;;;;;;;;;;;;;
2023/12/30 07:10:28;;;;;;;0.00;0.00;;;;;;;8.12;100.00;99525.56;5049585;28;20035;-74
2023/12/30 07:13:06;;;;;;;0.00;0.00;;;;;;;8.44;100.00;99570.81;5094421;28;20031;-75
2023/12/30 07:15:58;;;;;;;;;;;;;;;;;;;;;
2023/12/30 07:19:09;;;;;;;;;;;;;;;;;;;;;
2023/12/30 07:21:40;;;;;;;0.00;0.00;;;;;;;8.30;100.00;99523.38;5098142;28;20123;-78
2023/12/30 07:24:14;;;;;;;0.00;0.00;;;;;;;8.24;100.00;99514.38;5101041;28;20061;-76
2023/12/30 07:26:55;;;;;;;0.00;0.00;;;;;;;8.44;100.00;99545.41;5091687;28;20028;-78
2023/12/30 07:29:34;;;;;;;0.00;0.00;;;;;;;8.50;100.00;99545.19;5083202;28;20034;-76
2023/12/30 07:32:11;;;;;;;0.10;0.10;;;;;;;8.40;100.00;99515.19;5088368;28;20106;-76
2023/12/30 07:34:51;;;;;;;0.00;0.00;;;;;;;8.26;100.00;99489.59;5091129;28;20024;-76
2023/12/30 07:37:33;;;;;;;;;;;;;;;;;;;;;
2023/12/30 07:40:10;;;;;;;;;;;;;;;;;;;;;
2023/12/30 07:43:36;;;;;;;;;;;;;;;;;;;;;
2023/12/30 07:50:16;;;;;;;0.00;0.00;;;;;;;8.59;100.00;99490.16;5057675;28;20390;-76
2023/12/30 07:53:36;;;;;;;0.00;0.00;;;;;;;8.46;100.00;99445.19;5043932;28;20051;-77
2023/12/30 07:56:04;;;;;;;0.00;0.00;;;;;;;8.88;100.00;99493.06;5097899;28;20047;-77
2023/12/30 07:58:32;;;;;;;0.00;0.00;;;;;;;8.66;100.00;99456.06;5093820;28;20020;-76
2023/12/30 08:01:01;;;;;;;0.00;0.00;;;;;;;8.64;100.00;99446.50;5106385;28;20415;-77
2023/12/30 08:03:26;;;;;;;0.00;0.00;;;;;;;8.79;100.00;99465.56;5097710;28;20034;-76
2023/12/30 08:05:59;;;;;;;0.00;0.00;;;;;;;8.70;100.00;99450.84;5068969;28;20027;-77
2023/12/30 08:08:33;;;;;;;0.00;0.00;;;;;;;8.72;100.00;99443.22;5089912;28;20469;-77
2023/12/30 08:10:59;;;;;;;0.00;0.00;;;;;;;8.82;100.00;99459.53;5078255;28;20031;-77
2023/12/30 08:13:32;;;;;;;0.00;0.00;;;;;;;8.90;100.00;99456.22;5086967;28;20057;-77
2023/12/30 08:16:06;;;;;;;0.00;0.00;;;;;;;8.85;100.00;99445.34;5084018;28;20365;-75
2023/12/30 08:18:31;;;;;;;0.00;0.00;;;;;;;8.90;100.00;99433.59;5101052;28;20054;-75
2023/12/30 08:21:14;;;;;;;0.10;0.10;;;;;;;9.14;100.00;99461.06;5100516;28;20062;-75
2023/12/30 08:23:43;;;;;;;0.00;0.00;;;;;;;8.96;100.00;99426.22;5095654;28;20024;-76
2023/12/30 08:26:08;;;;;;;0.08;0.08;;;;;;;9.22;100.00;99457.72;5097031;28;20024;-75
2023/12/30 08:28:34;;;;;;;0.00;0.00;;;;;;;9.21;100.00;99464.31;5088331;28;20016;-76
2023/12/30 08:31:01;;;;;;;0.00;0.00;;;;;;;9.01;100.00;99421.56;5096016;28;20016;-76
2023/12/30 08:33:34;;;;;;;0.00;0.00;;;;;;;9.12;100.00;99433.22;5088452;28;20089;-76
2023/12/30 08:36:02;;;;;;;0.00;0.00;;;;;;;9.04;100.00;99417.47;5079315;28;20035;-77
2023/12/30 08:38:31;;;;;;;0.10;0.10;;;;;;;9.05;100.00;99408.19;5091439;28;20263;-77
2023/12/30 08:40:59;;;;;;;0.00;0.00;;;;;;;9.14;100.00;99422.88;5099344;28;20045;-76
2023/12/30 08:43:25;;;;;;;0.00;0.00;;;;;;;8.98;100.00;99399.47;5100966;28;20384;-76
2023/12/30 08:45:50;;;;;;;0.00;0.00;;;;;;;9.09;100.00;99406.53;5095317;28;20024;-76
2023/12/30 08:48:21;;;;;;;0.00;0.00;;;;;;;9.08;100.00;99407.59;5100423;28;20391;-75
2023/12/30 08:50:48;;;;;;;0.00;0.00;;;;;;;9.19;100.00;99425.56;5075873;28;20096;-76
2023/12/30 08:53:18;;;;;;;0.00;0.00;;;;;;;9.02;100.00;99382.31;5088280;28;20024;-77
2023/12/30 08:56:04;;;;;;;0.00;0.00;;;;;;;9.25;100.00;99407.25;5093831;28;20104;-76
2023/12/30 08:58:29;;;;;;;0.00;0.00;;;;;;;9.26;100.00;99420.63;5099865;28;20032;-75
2023/12/30 09:00:55;;;;;;;0.00;0.00;;;;;;;9.11;100.00;99384.41;5108037;28;20048;-75
2023/12/30 09:03:48;;;;;;;0.00;0.00;;;;;;;9.17;100.00;99386.84;5104404;28;20023;-75
2023/12/30 09:06:33;;;;;;;0.00;0.00;;;;;;;9.26;100.00;99409.69;5079020;28;20031;-76
2023/12/30 09:09:06;;;;;;;0.00;0.00;;;;;;;9.08;100.00;99380.34;5078282;28;20458;-75
2023/12/30 09:11:49;;;;;;;0.00;0.00;;;;;;;9.24;100.00;99411.91;5101807;28;20024;-75
2023/12/30 09:14:57;;;;;;;0.00;0.00;;;;;;;9.00;100.00;99349.03;5117996;27;20047;-75
2023/12/30 09:20:58;;;;;;;0.00;0.00;;;;;;;9.21;100.00;99363.38;5080150;28;20093;-75
2023/12/30 09:24:19;;;;;;;0.10;0.10;;;;;;;9.16;100.00;99352.47;5069190;28;20022;-75
2023/12/30 09:26:50;;;;;;;0.00;0.00;;;;;;;9.17;100.00;99351.38;5069053;28;20028;-76
2023/12/30 09:29:25;;;;;;;0.00;0.00;;;;;;;9.09;100.00;99354.69;5096604;28;20024;-74
2023/12/30 09:32:01;;;;;;;0.00;0.00;;;;;;;9.08;100.00;99343.00;5102809;28;20103;-74
2023/12/30 09:34:52;;;;;;;;;;;;;;;;;;;;;
2023/12/30 09:37:21;;;;;;;0.00;0.00;;;;;;;9.16;100.00;99355.22;5096632;28;20061;-74
2023/12/30 09:40:05;;;;;;;0.00;0.00;;;;;;;9.16;100.00;99362.59;5111720;27;20024;-75
2023/12/30 10:00:34;;;;;;;;;;;;;;;;;;;;;
2023/12/30 10:03:22;;;;;;;;;;;;;;;;;;;;;
2023/12/30 10:06:05;;;;;;;;;;;;;;;;;;;;;
2023/12/30 10:08:32;;;;;;;0.00;0.00;;;;;;;9.27;100.00;99336.84;4986490;28;20018;-78
2023/12/30 10:41:30;;;;;;;;;;;;;;;;;;;;;
2023/12/30 11:02:00;;;;;;;;;;;;;;;;;;;;;
2023/12/30 11:09:07;;;;;;;;;;;;;;;;;;;;;
2023/12/30 11:29:59;;;;;;;;;;;;;;;;;;;;;
2023/12/30 11:33:02;;;;;;;;;;;;;;;;;;;;;
2023/12/30 11:36:02;;;;;;;;;;;;;;;;;;;;;
2023/12/30 11:38:48;;;;;;;0.00;0.00;;;;;;;9.07;100.00;99182.38;4866961;29;20045;-78
2023/12/30 11:41:31;;;;;;;0.08;0.08;;;;;;;9.21;100.00;99202.44;4888905;29;20035;-76
2023/12/30 11:44:16;;;;;;;0.00;0.00;;;;;;;9.38;100.00;99198.44;4925249;29;20156;-77
2023/12/30 11:47:13;;;;;;;;;;;;;;;;;;;;;
2023/12/30 11:50:12;;;;;;;;;;;;;;;;;;;;;
2023/12/30 11:53:05;;;;;;;;;;;;;;;;;;;;;
2023/12/30 11:56:07;;;;;;;;;;;;;;;;;;;;;
2023/12/30 11:59:39;;;;;;;;;;;;;;;;;;;;;
2023/12/30 12:02:49;;;;;;;0.00;0.00;;;;;;;9.68;100.00;99185.56;5082173;28;20745;-75
2023/12/30 12:05:26;;;;;;;0.00;0.00;;;;;;;9.65;100.00;99170.63;4993837;28;20043;-75
2023/12/30 12:08:11;;;;;;;0.00;0.00;;;;;;;9.73;100.00;99172.69;5086022;28;20481;-76
2023/12/30 12:10:45;;;;;;;0.00;0.00;;;;;;;9.79;100.00;99165.25;5038155;28;20039;-77
2023/12/30 12:13:30;;;;;;;0.10;0.10;;;;;;;9.96;100.00;99187.44;5081598;28;20032;-76
2023/12/30 12:20:23;;;;;;;;;;;;;;;;;;;;;
2023/12/30 12:23:32;;;;;;;0.00;0.00;;;;;;;9.87;100.00;99145.50;4941563;28;20041;-77
2023/12/30 12:46:47;;;;;;;0.00;0.00;;;;;;;9.39;100.00;99086.28;4803518;29;20049;-78
2023/12/30 12:49:30;;;;;;;0.00;0.00;;;;;;;9.23;100.00;99055.66;4801467;29;20134;-80
2023/12/30 12:51:58;;;;;;;0.00;0.00;;;;;;;9.32;100.00;99060.47;4823205;29;20042;-78
2023/12/30 12:55:24;;;;;;;0.00;0.00;;;;;;;9.21;100.00;99040.66;4872787;29;20051;-77
2023/12/30 12:57:50;;;;;;;0.00;0.00;;;;;;;9.06;100.00;99006.22;4904302;29;20040;-79
2023/12/30 13:04:03;;;;;;;0.00;0.00;;;;;;;9.31;100.00;99007.00;4920091;28;20553;-78
2023/12/30 13:12:58;;;;;;;0.00;0.00;;;;;;;9.40;100.00;99010.69;4967065;28;20442;-76
2023/12/30 13:15:33;;;;;;;0.00;0.00;;;;;;;9.40;100.00;98956.13;5038590;28;20119;-77
2023/12/30 13:18:04;;;;;;;0.00;0.00;;;;;;;9.51;100.00;98957.63;5062345;28;20087;-79
2023/12/30 13:20:31;;;;;;;0.00;0.00;;;;;;;9.48;100.00;98957.41;5077143;28;20029;-78
2023/12/30 13:22:57;;;;;;;0.00;0.00;;;;;;;9.58;100.00;98974.44;5046728;28;20036;-78
2023/12/30 13:25:39;;;;;;;0.00;0.00;;;;;;;9.75;100.00;98973.94;5064968;28;20552;-82
2023/12/30 13:28:38;;;;;;;0.00;0.00;;;;;;;9.88;100.00;98987.94;5073199;28;20020;-84
2023/12/30 13:31:25;;;;;;;0.10;0.10;;;;;;;9.82;100.00;98968.09;5066519;28;20032;-82
2023/12/30 13:34:56;;;;;;;;;;;;;;;;;;;;;
2023/12/30 13:52:37;;;;;;;;;;;;;;;;;;;;;
2023/12/30 13:55:59;;;;;;;0.00;0.00;;;;;;;9.33;100.00;98891.03;4898424;29;20052;-76
2023/12/30 13:58:56;;;;;;;;;;;;;;;;;;;;;
2023/12/30 14:04:46;;;;;;;0.00;0.00;;;;;;;9.44;100.00;98875.31;5006107;28;20050;-76
2023/12/30 14:08:05;;;;;;;;;;;;;;;;;;;;;
2023/12/30 14:11:00;;;;;;;0.00;0.00;;;;;;;9.58;100.00;98859.81;5085200;28;20558;-76
2023/12/30 14:13:56;;;;;;;;;;;;;;;;;;;;;
2023/12/30 14:19:48;;;;;;;0.00;0.00;;;;;;;9.69;100.00;98876.84;5086425;27;20036;-77
2023/12/30 14:23:14;;;;;;;0.00;0.00;;;;;;;9.75;100.00;98870.19;5062345;28;20027;-74
2023/12/30 14:26:34;;;;;;;0.00;0.00;;;;;;;9.49;100.00;98834.34;5091881;28;20072;-74
2023/12/30 14:29:35;;;;;;;0.00;0.00;;;;;;;9.72;100.00;98881.69;5070356;28;20080;-75
2023/12/30 14:32:06;;;;;;;0.00;0.00;;;;;;;9.70;100.00;98874.94;5083650;28;20051;-75
2023/12/30 14:34:35;;;;;;;0.00;0.00;;;;;;;9.66;100.00;98871.16;5096332;27;20016;-77
2023/12/30 14:37:04;;;;;;;0.00;0.00;;;;;;;9.50;100.00;98830.47;5093869;28;20039;-75
2023/12/30 14:39:30;;;;;;;0.00;0.00;;;;;;;9.67;100.00;98834.59;5079071;28;20106;-75
2023/12/30 14:42:00;;;;;;;0.00;0.00;;;;;;;9.57;100.00;98817.25;5078062;28;20589;-75
2023/12/30 14:44:25;;;;;;;0.00;0.00;;;;;;;9.61;100.00;98810.09;5098683;27;20023;-75
2023/12/30 14:47:01;;;;;;;0.00;0.00;;;;;;;9.55;100.00;98811.31;5086849;28;20027;-75
2023/12/30 14:49:27;;;;;;;0.00;0.00;;;;;;;9.54;100.00;98815.13;5084047;28;20165;-76
2023/12/30 14:51:52;;;;;;;0.00;0.00;;;;;;;9.68;100.00;98841.66;5060016;28;20393;-76
2023/12/30 14:54:23;;;;;;;0.00;0.00;;;;;;;9.51;100.00;98807.53;5074007;28;20789;-76
2023/12/30 14:56:53;;;;;;;0.10;0.10;;;;;;;9.51;100.00;98799.34;5071130;28;20086;-76
2023/12/30 14:59:21;;;;;;;0.00;0.00;;;;;;;9.61;100.00;98815.56;5080795;28;20039;-75
2023/12/30 15:01:47;;;;;;;0.00;0.00;;;;;;;9.51;100.00;98793.91;5073633;28;20028;-75
2023/12/30 15:04:12;;;;;;;0.00;0.00;;;;;;;9.68;100.00;98803.44;5071153;28;20484;-82
2023/12/30 15:07:25;;;;;;;0.00;0.00;;;;;;;9.55;100.00;98773.09;5105150;27;20027;-82
2023/12/30 15:09:51;;;;;;;0.00;0.00;;;;;;;9.57;100.00;98792.69;5093254;28;20409;-79
2023/12/30 15:12:21;;;;;;;0.00;0.00;;;;;;;9.69;100.00;98794.16;5101009;28;20020;-79
2023/12/30 15:14:48;;;;;;;0.00;0.00;;;;;;;9.46;100.00;98750.31;5096700;28;20041;-80
2023/12/30 15:17:15;;;;;;;0.00;0.00;;;;;;;9.52;100.00;98762.78;5100975;28;20027;-81
2023/12/30 15:19:41;;;;;;;0.00;0.00;;;;;;;9.55;100.00;98786.75;5086683;28;20042;-79
2023/12/30 15:22:11;;;;;;;0.10;0.10;;;;;;;9.54;100.00;98762.47;5084312;28;20032;-78
2023/12/30 15:24:46;;;;;;;0.00;0.00;;;;;;;9.40;100.00;98743.34;5101594;27;20027;-79
2023/12/30 15:27:12;;;;;;;0.00;0.00;;;;;;;9.58;100.00;98761.56;5087678;28;20024;-80
2023/12/30 15:29:37;;;;;;;0.00;0.00;;;;;;;9.59;100.00;98763.22;5076035;28;20012;-81
2023/12/30 15:32:03;;;;;;;0.00;0.00;;;;;;;9.56;100.00;98762.97;5104086;28;20024;-81
2023/12/30 15:34:28;;;;;;;0.00;0.00;;;;;;;9.52;100.00;98746.41;5093278;28;20062;-80
2023/12/30 15:36:54;;;;;;;0.00;0.00;;;;;;;9.47;100.00;98743.75;5088086;28;20058;-79
2023/12/30 15:39:19;;;;;;;0.00;0.00;;;;;;;9.36;100.00;98734.13;5087355;28;20028;-81
2023/12/30 15:41:45;;;;;;;0.00;0.00;;;;;;;9.51;100.00;98739.31;5103289;27;20012;-81
2023/12/30 15:44:14;;;;;;;0.00;0.00;;;;;;;9.33;100.00;98704.72;5107284;28;20023;-82
2023/12/30 15:46:42;;;;;;;0.00;0.00;;;;;;;9.33;100.00;98702.00;5092318;28;20053;-82
2023/12/30 15:49:08;;;;;;;0.00;0.00;;;;;;;9.41;100.00;98717.69;5088374;28;20020;-80
2023/12/30 15:51:33;;;;;;;0.00;0.00;;;;;;;9.42;100.00;98716.59;5074468;28;20028;-82
2023/12/30 15:53:58;;;;;;;0.00;0.00;;;;;;;9.39;100.00;98712.53;5109148;28;20027;-83
2023/12/30 15:56:24;;;;;;;0.00;0.00;;;;;;;9.42;100.00;98703.75;5095007;28;20020;-84
2023/12/30 15:58:52;;;;;;;0.00;0.00;;;;;;;9.42;100.00;98690.09;5076116;28;20031;-84
2023/12/30 16:01:20;;;;;;;0.00;0.00;;;;;;;9.36;100.00;98687.75;5075680;28;20024;-80
2023/12/30 16:03:46;;;;;;;0.00;0.00;;;;;;;9.22;100.00;98661.25;5073023;28;20047;-80
2023/12/30 16:06:15;;;;;;;0.00;0.00;;;;;;;9.46;100.00;98697.69;5108099;28;20031;-82
2023/12/30 16:08:44;;;;;;;0.00;0.00;;;;;;;9.29;100.00;98649.13;5101350;28;20063;-84
2023/12/30 16:11:27;;;;;;;0.00;0.00;;;;;;;9.50;100.00;98677.66;5091727;28;20044;-82
2023/12/30 16:13:53;;;;;;;0.00;0.00;;;;;;;9.48;100.00;98663.53;5092684;28;20020;-79
2023/12/30 16:16:18;;;;;;;0.00;0.00;;;;;;;9.51;100.00;98662.94;5075185;28;20026;-81
2023/12/30 16:18:43;;;;;;;0.00;0.00;;;;;;;9.55;100.00;98635.81;5087544;28;20081;-80
2023/12/30 16:21:12;;;;;;;0.00;0.00;;;;;;;9.59;100.00;98632.22;5086997;28;20032;-80
2023/12/30 16:23:39;;;;;;;0.00;0.00;;;;;;;9.55;100.00;98642.13;5073419;28;20038;-80
2023/12/30 16:26:08;;;;;;;0.00;0.00;;;;;;;9.85;100.00;98667.16;5098362;27;20020;-77